Anna M. — WDD3952 — position and weather

sailwx.info

Track history (hours):
 
Tides and Currents Weather Stations Pressure Air Temp Water Temp Dewpoint Dewpoint Depression Visibility Wind Speed Wind Dir Waves Ship Positions

Anna M.

Owner: OFFSHORE OIL SERVICES, INC., Clute, TX. More information available from US FCC via Universal Licensing System and Coast Guard Vessel Documentation Center.

Last reported at 2017-Sep-08 03:59 UTC. Time now 2017-Sep-20 02:13 UTC.
Position N 29°43' W 092°15'.
Warning: this ship's position is 11 days out of date.

; draft 2.2 m.

Type: Passenger vessel. MMSI: 367138490.

Date/timePositionNaut miles runAvg speedWind from/ knotsBaromVisibWave heightAir tempDewpointWater temp
2017-Sep-08 03:59N 29°43' W 092°15'5 9.6
2017-Sep-08 03:27N 29°46' W 092°11'1 1.9
2017-Sep-08 03:00N 29°47' W 092°11'0 0.0
2017-Sep-08 02:30N 29°47' W 092°11'0 0.2
2017-Sep-08 02:01N 29°47' W 092°11'1 2.1
2017-Sep-08 01:31N 29°46' W 092°11'4 0.5
2017-Sep-07 17:09N 29°43' W 092°15'210.5
2017-Sep-07 17:00N 29°44' W 092°14'4 7.1
2017-Sep-07 16:30N 29°47' W 092°11'0 0.0
2017-Sep-07 16:00N 29°47' W 092°11'0 0.0
2017-Sep-07 15:30N 29°47' W 092°11'0 0.1
2017-Sep-07 15:00N 29°47' W 092°11'0 0.0
2017-Sep-07 14:30N 29°47' W 092°11'2 4.1
2017-Sep-07 13:57N 29°45' W 092°13'  
2017-Sep-03 07:35N 29°49' W 093°21'0 0.0
2017-Sep-02 13:22N 29°49' W 093°21'  
2017-Aug-31 06:25N 29°41' W 092°15'3 8.1
2017-Aug-31 06:01N 29°44' W 092°14'3 6.9
2017-Aug-31 05:31N 29°47' W 092°11'0 0.1
2017-Aug-31 05:01N 29°47' W 092°11'0 0.0
2017-Aug-31 04:31N 29°47' W 092°11'0 0.0
2017-Aug-31 04:01N 29°47' W 092°11'0 0.0
2017-Aug-31 03:31N 29°47' W 092°11'0 0.0
2017-Aug-31 03:01N 29°47' W 092°11'0 0.0
2017-Aug-31 02:30N 29°47' W 092°11'0 0.0
2017-Aug-31 02:01N 29°47' W 092°11'0 0.0
2017-Aug-31 01:31N 29°47' W 092°11'0 0.0
2017-Aug-31 01:01N 29°47' W 092°11'0 0.2
2017-Aug-31 00:31N 29°47' W 092°11'0 0.4
2017-Aug-31 00:01N 29°47' W 092°11'0 0.0
2017-Aug-30 23:31N 29°47' W 092°11'0 0.1
2017-Aug-30 23:01N 29°47' W 092°11'0 0.1
2017-Aug-30 22:31N 29°47' W 092°11'0 0.0
2017-Aug-30 22:00N 29°47' W 092°11'0 0.0
2017-Aug-30 21:31N 29°47' W 092°11'0 0.0
2017-Aug-30 21:01N 29°47' W 092°11'0 0.0
2017-Aug-30 20:31N 29°47' W 092°11'0 0.0
2017-Aug-30 20:01N 29°47' W 092°11'0 0.0
2017-Aug-30 19:31N 29°47' W 092°11'0 0.0
2017-Aug-30 19:01N 29°47' W 092°11'0 0.0
2017-Aug-30 18:31N 29°47' W 092°11'0 0.0
2017-Aug-30 18:01N 29°47' W 092°11'0 0.0
2017-Aug-30 17:30N 29°47' W 092°11'0 0.0
2017-Aug-30 17:01N 29°47' W 092°11'0 0.0
2017-Aug-30 16:30N 29°47' W 092°11'0 0.0
2017-Aug-30 16:01N 29°47' W 092°11'0 0.0
2017-Aug-30 15:31N 29°47' W 092°11'0 0.0
2017-Aug-30 15:01N 29°47' W 092°11'0 0.0
2017-Aug-30 14:31N 29°47' W 092°11'0 0.0
2017-Aug-30 14:01N 29°47' W 092°11'0 0.0
2017-Aug-30 13:30N 29°47' W 092°11'0 0.0
2017-Aug-30 13:01N 29°47' W 092°11'0 0.0
2017-Aug-30 12:30N 29°47' W 092°11'0 0.2
2017-Aug-30 12:01N 29°47' W 092°11'0 0.0
2017-Aug-30 11:30N 29°47' W 092°11'0 0.0
2017-Aug-30 11:00N 29°47' W 092°11'0 0.0
2017-Aug-30 10:30N 29°47' W 092°11'0 0.0
2017-Aug-30 10:00N 29°47' W 092°11'0 0.0
2017-Aug-30 09:30N 29°47' W 092°11'0 0.0
2017-Aug-30 09:00N 29°47' W 092°11'0 0.0
2017-Aug-30 08:30N 29°47' W 092°11'0 0.0
2017-Aug-30 08:00N 29°47' W 092°11'0 0.0
2017-Aug-30 07:30N 29°47' W 092°11'0 0.0
2017-Aug-30 07:00N 29°47' W 092°11'0 0.0
2017-Aug-30 06:30N 29°47' W 092°11'0 0.0
2017-Aug-30 06:00N 29°47' W 092°11'0 0.0
2017-Aug-30 05:30N 29°47' W 092°11'0 0.0
2017-Aug-30 05:00N 29°47' W 092°11'0 0.0
2017-Aug-30 04:30N 29°47' W 092°11'0 0.0
2017-Aug-30 04:00N 29°47' W 092°11'0 0.0
2017-Aug-30 03:30N 29°47' W 092°11'0 0.0
2017-Aug-30 03:00N 29°47' W 092°11'0 0.0
2017-Aug-30 02:30N 29°47' W 092°11'0 0.0
2017-Aug-30 02:00N 29°47' W 092°11'0 0.0
2017-Aug-30 01:30N 29°47' W 092°11'0 0.0
2017-Aug-30 01:00N 29°47' W 092°11'0 0.0
2017-Aug-30 00:30N 29°47' W 092°11'0 0.0
2017-Aug-30 00:00N 29°47' W 092°11'0 0.0
2017-Aug-29 23:30N 29°47' W 092°11'0 0.0
2017-Aug-29 23:00N 29°47' W 092°11'0 0.0
2017-Aug-29 22:30N 29°47' W 092°11'0 0.0
2017-Aug-29 22:00N 29°47' W 092°11'0 0.0
2017-Aug-29 21:30N 29°47' W 092°11'0 0.0
2017-Aug-29 21:00N 29°47' W 092°11'0 0.0
2017-Aug-29 20:30N 29°47' W 092°11'0 0.0
2017-Aug-29 20:00N 29°47' W 092°11'0 0.0
2017-Aug-29 19:30N 29°47' W 092°11'0 0.0
2017-Aug-29 19:00N 29°47' W 092°11'0 0.0
2017-Aug-29 18:30N 29°47' W 092°11'0 0.0
2017-Aug-29 18:00N 29°47' W 092°11'0 0.0
2017-Aug-29 17:30N 29°47' W 092°11'0 0.0
2017-Aug-29 17:00N 29°47' W 092°11'0 0.0
2017-Aug-29 16:30N 29°47' W 092°11'0 0.0
2017-Aug-29 16:00N 29°47' W 092°11'0 0.0
2017-Aug-29 15:30N 29°47' W 092°11'0 0.0
2017-Aug-29 15:00N 29°47' W 092°11'0 0.0
2017-Aug-29 14:30N 29°47' W 092°11'0 0.0
2017-Aug-29 14:00N 29°47' W 092°11'0 0.0
2017-Aug-29 13:30N 29°47' W 092°11'0 0.0
2017-Aug-29 13:00N 29°47' W 092°11'0 0.0
2017-Aug-29 12:30N 29°47' W 092°11'0 0.0
2017-Aug-29 12:00N 29°47' W 092°11'0 0.0
2017-Aug-29 11:30N 29°47' W 092°11'0 0.0
2017-Aug-29 11:00N 29°47' W 092°11'0 0.0
2017-Aug-29 10:30N 29°47' W 092°11'0 0.0
2017-Aug-29 10:00N 29°47' W 092°11'0 0.0
2017-Aug-29 09:30N 29°47' W 092°11'0 0.0
2017-Aug-29 09:00N 29°47' W 092°11'0 0.0
2017-Aug-29 08:30N 29°47' W 092°11'0 0.0
2017-Aug-29 08:00N 29°47' W 092°11'0 0.0
2017-Aug-29 07:30N 29°47' W 092°11'0 0.0
2017-Aug-29 07:00N 29°47' W 092°11'0 0.0
2017-Aug-29 06:30N 29°47' W 092°11'0 0.0
2017-Aug-29 06:00N 29°47' W 092°11'0 0.0
2017-Aug-29 05:30N 29°47' W 092°11'0 0.0
2017-Aug-29 05:00N 29°47' W 092°11'0 0.0
2017-Aug-29 04:30N 29°47' W 092°11'0 0.0
2017-Aug-29 04:00N 29°47' W 092°11'  
Track history (hours):
 
Tides and Currents Weather Stations Pressure Air Temp Water Temp Dewpoint Dewpoint Depression Visibility Wind Speed Wind Dir Waves Ship Positions

Anna M.

Owner: OFFSHORE OIL SERVICES, INC., Clute, TX. More information available from US FCC via Universal Licensing System and Coast Guard Vessel Documentation Center.

Last reported at 2017-Sep-08 03:59 UTC. Time now 2017-Sep-20 02:13 UTC.
Position N 29°43' W 092°15'.
Warning: this ship's position is 11 days out of date.

; draft 2.2 m.

Type: Passenger vessel. MMSI: 367138490.

Date/timePositionNaut miles runAvg speedWind from/ knotsBaromVisibWave heightAir tempDewpointWater temp
2017-Sep-08 03:59N 29°43' W 092°15'5 9.6
2017-Sep-08 03:27N 29°46' W 092°11'1 1.9
2017-Sep-08 03:00N 29°47' W 092°11'0 0.0
2017-Sep-08 02:30N 29°47' W 092°11'0 0.2
2017-Sep-08 02:01N 29°47' W 092°11'1 2.1
2017-Sep-08 01:31N 29°46' W 092°11'4 0.5
2017-Sep-07 17:09N 29°43' W 092°15'210.5
2017-Sep-07 17:00N 29°44' W 092°14'4 7.1
2017-Sep-07 16:30N 29°47' W 092°11'0 0.0
2017-Sep-07 16:00N 29°47' W 092°11'0 0.0
2017-Sep-07 15:30N 29°47' W 092°11'0 0.1
2017-Sep-07 15:00N 29°47' W 092°11'0 0.0
2017-Sep-07 14:30N 29°47' W 092°11'2 4.1
2017-Sep-07 13:57N 29°45' W 092°13'  
2017-Sep-03 07:35N 29°49' W 093°21'0 0.0
2017-Sep-02 13:22N 29°49' W 093°21'  
2017-Aug-31 06:25N 29°41' W 092°15'3 8.1
2017-Aug-31 06:01N 29°44' W 092°14'3 6.9
2017-Aug-31 05:31N 29°47' W 092°11'0 0.1
2017-Aug-31 05:01N 29°47' W 092°11'0 0.0
2017-Aug-31 04:31N 29°47' W 092°11'0 0.0
2017-Aug-31 04:01N 29°47' W 092°11'0 0.0
2017-Aug-31 03:31N 29°47' W 092°11'0 0.0
2017-Aug-31 03:01N 29°47' W 092°11'0 0.0
2017-Aug-31 02:30N 29°47' W 092°11'0 0.0
2017-Aug-31 02:01N 29°47' W 092°11'0 0.0
2017-Aug-31 01:31N 29°47' W 092°11'0 0.0
2017-Aug-31 01:01N 29°47' W 092°11'0 0.2
2017-Aug-31 00:31N 29°47' W 092°11'0 0.4
2017-Aug-31 00:01N 29°47' W 092°11'0 0.0
2017-Aug-30 23:31N 29°47' W 092°11'0 0.1
2017-Aug-30 23:01N 29°47' W 092°11'0 0.1
2017-Aug-30 22:31N 29°47' W 092°11'0 0.0
2017-Aug-30 22:00N 29°47' W 092°11'0 0.0
2017-Aug-30 21:31N 29°47' W 092°11'0 0.0
2017-Aug-30 21:01N 29°47' W 092°11'0 0.0
2017-Aug-30 20:31N 29°47' W 092°11'0 0.0
2017-Aug-30 20:01N 29°47' W 092°11'0 0.0
2017-Aug-30 19:31N 29°47' W 092°11'0 0.0
2017-Aug-30 19:01N 29°47' W 092°11'0 0.0
2017-Aug-30 18:31N 29°47' W 092°11'0 0.0
2017-Aug-30 18:01N 29°47' W 092°11'0 0.0
2017-Aug-30 17:30N 29°47' W 092°11'0 0.0
2017-Aug-30 17:01N 29°47' W 092°11'0 0.0
2017-Aug-30 16:30N 29°47' W 092°11'0 0.0
2017-Aug-30 16:01N 29°47' W 092°11'0 0.0
2017-Aug-30 15:31N 29°47' W 092°11'0 0.0
2017-Aug-30 15:01N 29°47' W 092°11'0 0.0
2017-Aug-30 14:31N 29°47' W 092°11'0 0.0
2017-Aug-30 14:01N 29°47' W 092°11'0 0.0
2017-Aug-30 13:30N 29°47' W 092°11'0 0.0
2017-Aug-30 13:01N 29°47' W 092°11'0 0.0
2017-Aug-30 12:30N 29°47' W 092°11'0 0.2
2017-Aug-30 12:01N 29°47' W 092°11'0 0.0
2017-Aug-30 11:30N 29°47' W 092°11'0 0.0
2017-Aug-30 11:00N 29°47' W 092°11'0 0.0
2017-Aug-30 10:30N 29°47' W 092°11'0 0.0
2017-Aug-30 10:00N 29°47' W 092°11'0 0.0
2017-Aug-30 09:30N 29°47' W 092°11'0 0.0
2017-Aug-30 09:00N 29°47' W 092°11'0 0.0
2017-Aug-30 08:30N 29°47' W 092°11'0 0.0
2017-Aug-30 08:00N 29°47' W 092°11'0 0.0
2017-Aug-30 07:30N 29°47' W 092°11'0 0.0
2017-Aug-30 07:00N 29°47' W 092°11'0 0.0
2017-Aug-30 06:30N 29°47' W 092°11'0 0.0
2017-Aug-30 06:00N 29°47' W 092°11'0 0.0
2017-Aug-30 05:30N 29°47' W 092°11'0 0.0
2017-Aug-30 05:00N 29°47' W 092°11'0 0.0
2017-Aug-30 04:30N 29°47' W 092°11'0 0.0
2017-Aug-30 04:00N 29°47' W 092°11'0 0.0
2017-Aug-30 03:30N 29°47' W 092°11'0 0.0
2017-Aug-30 03:00N 29°47' W 092°11'0 0.0
2017-Aug-30 02:30N 29°47' W 092°11'0 0.0
2017-Aug-30 02:00N 29°47' W 092°11'0 0.0
2017-Aug-30 01:30N 29°47' W 092°11'0 0.0
2017-Aug-30 01:00N 29°47' W 092°11'0 0.0
2017-Aug-30 00:30N 29°47' W 092°11'0 0.0
2017-Aug-30 00:00N 29°47' W 092°11'0 0.0
2017-Aug-29 23:30N 29°47' W 092°11'0 0.0
2017-Aug-29 23:00N 29°47' W 092°11'0 0.0
2017-Aug-29 22:30N 29°47' W 092°11'0 0.0
2017-Aug-29 22:00N 29°47' W 092°11'0 0.0
2017-Aug-29 21:30N 29°47' W 092°11'0 0.0
2017-Aug-29 21:00N 29°47' W 092°11'0 0.0
2017-Aug-29 20:30N 29°47' W 092°11'0 0.0
2017-Aug-29 20:00N 29°47' W 092°11'0 0.0
2017-Aug-29 19:30N 29°47' W 092°11'0 0.0
2017-Aug-29 19:00N 29°47' W 092°11'0 0.0
2017-Aug-29 18:30N 29°47' W 092°11'0 0.0
2017-Aug-29 18:00N 29°47' W 092°11'0 0.0
2017-Aug-29 17:30N 29°47' W 092°11'0 0.0
2017-Aug-29 17:00N 29°47' W 092°11'0 0.0
2017-Aug-29 16:30N 29°47' W 092°11'0 0.0
2017-Aug-29 16:00N 29°47' W 092°11'0 0.0
2017-Aug-29 15:30N 29°47' W 092°11'0 0.0
2017-Aug-29 15:00N 29°47' W 092°11'0 0.0
2017-Aug-29 14:30N 29°47' W 092°11'0 0.0
2017-Aug-29 14:00N 29°47' W 092°11'0 0.0
2017-Aug-29 13:30N 29°47' W 092°11'0 0.0
2017-Aug-29 13:00N 29°47' W 092°11'0 0.0
2017-Aug-29 12:30N 29°47' W 092°11'0 0.0
2017-Aug-29 12:00N 29°47' W 092°11'0 0.0
2017-Aug-29 11:30N 29°47' W 092°11'0 0.0
2017-Aug-29 11:00N 29°47' W 092°11'0 0.0
2017-Aug-29 10:30N 29°47' W 092°11'0 0.0
2017-Aug-29 10:00N 29°47' W 092°11'0 0.0
2017-Aug-29 09:30N 29°47' W 092°11'0 0.0
2017-Aug-29 09:00N 29°47' W 092°11'0 0.0
2017-Aug-29 08:30N 29°47' W 092°11'0 0.0
2017-Aug-29 08:00N 29°47' W 092°11'0 0.0
2017-Aug-29 07:30N 29°47' W 092°11'0 0.0
2017-Aug-29 07:00N 29°47' W 092°11'0 0.0
2017-Aug-29 06:30N 29°47' W 092°11'0 0.0
2017-Aug-29 06:00N 29°47' W 092°11'0 0.0
2017-Aug-29 05:30N 29°47' W 092°11'0 0.0
2017-Aug-29 05:00N 29°47' W 092°11'0 0.0
2017-Aug-29 04:30N 29°47' W 092°11'0 0.0
2017-Aug-29 04:00N 29°47' W 092°11'  

Dump ship's entire track history